Station Historical Data
Daily Summary for November 22, 2017 Units:  English    Metric   Both
« Previous Day
Next Day »
Daily Weekly Monthly Yearly Custom
  High: Low: Average:
Temperature: 60.8 °F 40.9 °F 51.1 °F
Dew Point: 50.6 °F 32.0 °F 40.5 °F
Humidity: 92% 43% 69%
Wind Speed: 5.8mph 0.0mph 1.7mph
Wind Gust: 5.8mph - -
Wind- - SSW
Pressure: 30.14 in 30.04 in -
Precipitation: 0.00 in    
Historical Graphs
 
 
Tabular Data for November 22, 2017
Time Temperature Dew Point Pressure Wind Wind Speed Wind Gust Humidity Rainfall Rate (Hourly) solar Conditions
00:00 51.8 °F 49.0 °F 30.07 in NNE 1.2 mph   90% 0.00 in WeatherDisplay:10.37 W/m2 BKN
00:03 51.8 °F 49.0 °F 30.06 in NNE 1.2 mph   90% 0.00 in WeatherDisplay:10.37 W/m2 BKN
00:13 52.0 °F 49.5 °F 30.06 in Calm     91% 0.00 in WeatherDisplay:10.37 W/m2 FEW
00:18 52.0 °F 49.5 °F 30.06 in Calm     91% 0.00 in WeatherDisplay:10.37 W/m2 FEW
00:23 52.4 °F 49.8 °F 30.07 in NNE 1.2 mph   91% 0.00 in WeatherDisplay:10.37 W/m2 FEW
00:29 52.8 °F 50.2 °F 30.07 in NE 1.2 mph   91% 0.00 in WeatherDisplay:10.37 W/m2 FEW
00:34 52.9 °F 50.3 °F 30.07 in NE 1.2 mph   91% 0.00 in WeatherDisplay:10.37 W/m2 FEW
00:44 53.2 °F 50.3 °F 30.07 in Calm     90% 0.00 in WeatherDisplay:10.37 W/m2 SCT
00:49 53.0 °F 49.8 °F 30.07 in Calm     89% 0.00 in WeatherDisplay:10.37 W/m2 SCT
00:54 52.9 °F 49.7 °F 30.08 in Calm     89% 0.00 in WeatherDisplay:10.37 W/m2 SCT
00:59 52.8 °F 49.6 °F 30.07 in Calm     89% 0.00 in WeatherDisplay:10.37 W/m2 SCT
01:05 52.8 °F 49.6 °F 30.07 in Calm     89% 0.00 in WeatherDisplay:10.37 W/m2 OVC
01:10 52.8 °F 49.9 °F 30.07 in Calm     90% 0.00 in WeatherDisplay:10.37 W/m2 OVC
01:15 52.8 °F 49.9 °F 30.08 in Calm     90% 0.00 in WeatherDisplay:10.37 W/m2 OVC
01:30 53.0 °F 50.1 °F 30.07 in Calm     90% 0.00 in WeatherDisplay:10.37 W/m2 OVC
01:35 53.0 °F 50.1 °F 30.06 in Calm     90% 0.00 in WeatherDisplay:10.37 W/m2 OVC
01:45 53.2 °F 50.3 °F 30.07 in NE 1.2 mph   90% 0.00 in WeatherDisplay:10.37 W/m2 OVC
01:50 53.3 °F 50.4 °F 30.07 in NE 1.2 mph   90% 0.00 in WeatherDisplay:10.37 W/m2 OVC
01:55 53.4 °F 50.5 °F 30.07 in Calm     90% 0.00 in WeatherDisplay:10.37 W/m2 OVC
02:06 53.5 °F 50.6 °F 30.07 in Calm     90% 0.00 in WeatherDisplay:10.37 W/m2 OVC
02:11 53.4 °F 50.5 °F 30.07 in Calm     90% 0.00 in WeatherDisplay:10.37 W/m2 OVC
02:16 53.4 °F 50.2 °F 30.07 in Calm     89% 0.00 in WeatherDisplay:10.37 W/m2 OVC
02:21 53.3 °F 50.1 °F 30.07 in Calm     89% 0.00 in WeatherDisplay:10.37 W/m2 OVC
02:26 53.2 °F 50.0 °F 30.07 in ENE 1.2 mph   89% 0.00 in WeatherDisplay:10.37 W/m2 OVC
02:36 53.1 °F 49.9 °F 30.06 in East 1.2 mph 1.2 mph 89% 0.00 in WeatherDisplay:10.37 W/m2 BKN
02:46 52.7 °F 49.8 °F 30.06 in East 1.2 mph   90% 0.00 in WeatherDisplay:10.37 W/m2 BKN
02:51 52.6 °F 49.8 °F 30.06 in East 1.2 mph   90% 0.00 in WeatherDisplay:10.37 W/m2 BKN
02:56 52.5 °F 49.7 °F 30.06 in Calm     90% 0.00 in WeatherDisplay:10.37 W/m2 BKN
03:01 52.3 °F 49.5 °F 30.06 in Calm     90% 0.00 in WeatherDisplay:10.37 W/m2 SCT
03:06 52.3 °F 49.5 °F 30.06 in Calm     90% 0.00 in WeatherDisplay:10.37 W/m2 SCT
03:11 52.2 °F 49.4 °F 30.06 in Calm     90% 0.00 in WeatherDisplay:10.37 W/m2 SCT
03:17 52.2 °F 49.7 °F 30.06 in Calm     91% 0.00 in WeatherDisplay:10.37 W/m2 SCT
03:27 52.0 °F 49.2 °F 30.05 in Calm     90% 0.00 in WeatherDisplay:10.37 W/m2 SCT
03:32 51.8 °F 49.0 °F 30.05 in Calm     90% 0.00 in WeatherDisplay:10.37 W/m2 SCT
03:47 51.5 °F 49.0 °F 30.05 in Calm     91% 0.00 in WeatherDisplay:10.37 W/m2 SCT
03:57 51.2 °F 48.7 °F 30.04 in Calm     91% 0.00 in WeatherDisplay:10.37 W/m2 SCT
04:02 51.1 °F 48.6 °F 30.04 in East 1.2 mph 1.2 mph 91% 0.00 in WeatherDisplay:10.37 W/m2 CLR
04:07 50.9 °F 48.4 °F 30.04 in East 1.2 mph   91% 0.00 in WeatherDisplay:10.37 W/m2 CLR
04:12 50.8 °F 48.3 °F 30.04 in East 1.2 mph   91% 0.00 in WeatherDisplay:10.37 W/m2 CLR
04:23 50.7 °F 48.2 °F 30.04 in Calm     91% 0.00 in WeatherDisplay:10.37 W/m2 CLR
04:33 50.3 °F 47.8 °F 30.04 in Calm     91% 0.00 in WeatherDisplay:10.37 W/m2 CLR
04:38 50.0 °F 47.5 °F 30.04 in Calm     91% 0.00 in WeatherDisplay:10.37 W/m2 CLR
04:43 49.7 °F 47.2 °F 30.04 in Calm     91% 0.00 in WeatherDisplay:10.37 W/m2 CLR
04:48 49.6 °F 47.1 °F 30.04 in Calm     91% 0.00 in WeatherDisplay:10.37 W/m2 CLR
04:53 49.5 °F 47.0 °F 30.04 in East 1.2 mph   91% 0.00 in WeatherDisplay:10.37 W/m2 CLR
04:58 49.4 °F 47.2 °F 30.04 in ENE 1.2 mph   92% 0.00 in WeatherDisplay:10.37 W/m2 CLR
05:08 49.2 °F 46.7 °F 30.04 in WNW 1.2 mph   91% 0.00 in WeatherDisplay:10.37 W/m2 CLR
05:18 49.0 °F 46.5 °F 30.04 in West 1.2 mph   91% 0.00 in WeatherDisplay:10.37 W/m2 CLR
05:34 48.6 °F 45.8 °F 30.04 in West 1.2 mph   90% 0.00 in WeatherDisplay:10.37 W/m2 CLR
05:44 48.4 °F 45.3 °F 30.04 in West 1.2 mph   89% 0.00 in WeatherDisplay:10.37 W/m2 CLR
05:49 48.1 °F 45.0 °F 30.04 in NW 1.2 mph   89% 0.00 in WeatherDisplay:10.37 W/m2 CLR
05:59 47.7 °F 44.6 °F 30.05 in NNW 1.2 mph 1.2 mph 89% 0.00 in WeatherDisplay:10.37 W/m2 CLR
06:04 47.6 °F 44.2 °F 30.05 in NNW 1.2 mph   88% 0.00 in WeatherDisplay:10.37 W/m2 CLR
06:09 47.4 °F 44.0 °F 30.05 in NNW 1.2 mph   88% 0.00 in WeatherDisplay:10.37 W/m2 CLR
06:14 47.3 °F 43.6 °F 30.05 in NNW 1.2 mph 1.2 mph 87% 0.00 in WeatherDisplay:10.37 W/m2 CLR
06:19 47.3 °F 43.3 °F 30.05 in WNW 1.2 mph   86% 0.00 in WeatherDisplay:10.37 W/m2 CLR
06:30 47.2 °F 42.6 °F 30.05 in SW 1.2 mph 1.2 mph 84% 0.00 in WeatherDisplay:10.37 W/m2 CLR
06:35 47.1 °F 42.5 °F 30.05 in Calm   1.0 mph 84% 0.00 in WeatherDisplay:10.37 W/m2 CLR
06:40 47.0 °F 42.1 °F 30.05 in Calm   1.0 mph 83% 0.00 in WeatherDisplay:10.37 W/m2 CLR
06:45 46.8 °F 42.2 °F 30.05 in WNW 1.2 mph   84% 0.00 in WeatherDisplay:10.37 W/m2 CLR
06:50 46.5 °F 41.9 °F 30.05 in WNW 1.2 mph   84% 0.00 in WeatherDisplay:10.37 W/m2 CLR
06:55 46.2 °F 41.6 °F 30.05 in WNW 1.2 mph   84% 0.00 in WeatherDisplay:10.37 W/m2 CLR
07:00 46.0 °F 41.7 °F 30.05 in Calm     85% 0.00 in WeatherDisplay:10.37 W/m2 CLR
07:10 45.5 °F 41.3 °F 30.05 in West 1.2 mph   85% 0.00 in WeatherDisplay:10.37 W/m2 SCT
07:15 45.3 °F 41.4 °F 30.06 in Calm     86% 0.00 in WeatherDisplay:10.37 W/m2 SCT
07:20 45.1 °F 41.2 °F 30.06 in Calm     86% 0.00 in WeatherDisplay:10.37 W/m2 SCT
07:25 44.9 °F 41.0 °F 30.06 in Calm     86% 0.00 in WeatherDisplay:10.37 W/m2 SCT
07:30 44.9 °F 41.0 °F 30.07 in Calm     86% 0.00 in WeatherDisplay:10.37 W/m2 SCT
07:35 44.8 °F 40.9 °F 30.07 in Calm     86% 0.00 in WeatherDisplay:10.37 W/m2 SCT
07:40 44.7 °F 40.8 °F 30.07 in Calm     86% 0.00 in WeatherDisplay:10.37 W/m2 SCT
07:46 44.8 °F 40.9 °F 30.08 in Calm   0.1 mph 86% 0.00 in WeatherDisplay:10.37 W/m2 SCT
07:51 44.9 °F 40.7 °F 30.08 in WNW 1.2 mph   85% 0.00 in WeatherDisplay:10.37 W/m2 SCT
07:56 45.0 °F 40.8 °F 30.08 in WNW 1.2 mph   85% 0.00 in WeatherDisplay:10.37 W/m2 SCT
08:01 45.1 °F 40.6 °F 30.09 in WNW 1.2 mph   84% 0.00 in WeatherDisplay:10.37 W/m2 FEW
08:06 45.5 °F 40.6 °F 30.09 in NW 1.2 mph   83% 0.00 in WeatherDisplay:10.37 W/m2 FEW
08:11 46.0 °F 40.8 °F 30.09 in WNW 2.3 mph   82% 0.00 in WeatherDisplay:10.37 W/m2 FEW
08:16 46.3 °F 40.8 °F 30.09 in WNW 2.3 mph   81% 0.00 in WeatherDisplay:10.37 W/m2 FEW
08:21 46.6 °F 40.4 °F 30.10 in North 1.2 mph 1.2 mph 79% 0.00 in WeatherDisplay:10.37 W/m2 FEW
08:27 47.1 °F 40.6 °F 30.10 in ESE 1.2 mph 1.2 mph 78% 0.00 in WeatherDisplay:10.37 W/m2 FEW
08:37 47.8 °F 40.3 °F 30.11 in East 1.2 mph   75% 0.00 in WeatherDisplay:10.37 W/m2 FEW
08:47 48.7 °F 40.4 °F 30.11 in ESE 3.5 mph 3.5 mph 73% 0.00 in WeatherDisplay:10.37 W/m2 FEW
08:57 49.9 °F 40.5 °F 30.11 in SW 2.3 mph 2.3 mph 70% 0.00 in WeatherDisplay:10.37 W/m2 FEW
09:02 50.3 °F 40.5 °F 30.11 in WSW 1.2 mph   69% 0.00 in WeatherDisplay:10.37 W/m2 FEW
09:07 50.5 °F 39.9 °F 30.11 in WSW 3.5 mph 3.5 mph 67% 0.00 in WeatherDisplay:10.37 W/m2 FEW
09:12 50.8 °F 40.6 °F 30.11 in West 3.5 mph   68% 0.00 in WeatherDisplay:10.37 W/m2 FEW
09:17 51.0 °F 40.0 °F 30.11 in West 3.5 mph 3.5 mph 66% 0.00 in WeatherDisplay:10.37 W/m2 FEW
09:22 51.2 °F 40.2 °F 30.12 in NW 3.5 mph   66% 0.00 in WeatherDisplay:10.37 W/m2 FEW
09:27 51.4 °F 39.6 °F 30.12 in WSW 2.3 mph 2.3 mph 64% 0.00 in WeatherDisplay:10.37 W/m2 FEW
09:46 52.6 °F 39.9 °F 30.12 in South 4.6 mph 4.6 mph 62% 0.00 in WeatherDisplay:10.37 W/m2 FEW
09:51 52.9 °F 39.4 °F 30.12 in SSE 4.6 mph 4.6 mph 60% 0.00 in WeatherDisplay:10.37 W/m2 FEW
10:01 53.4 °F 39.4 °F 30.12 in SSE 5.8 mph 5.8 mph 59% 0.00 in WeatherDisplay:10.37 W/m2 FEW
10:06 53.6 °F 39.2 °F 30.12 in SSE 5.8 mph 5.8 mph 58% 0.00 in WeatherDisplay:10.37 W/m2 SCT
10:16 54.2 °F 39.3 °F 30.13 in SSE 4.6 mph 4.6 mph 57% 0.00 in WeatherDisplay:10.37 W/m2 SCT
10:26 55.3 °F 39.9 °F 30.13 in South 4.6 mph 4.6 mph 56% 0.00 in WeatherDisplay:10.37 W/m2 SCT
10:36 55.9 °F 39.5 °F 30.13 in East 4.6 mph 4.6 mph 54% 0.00 in WeatherDisplay:10.37 W/m2 SCT
10:41 56.5 °F 40.0 °F 30.14 in South 5.8 mph 5.8 mph 54% 0.00 in WeatherDisplay:10.37 W/m2 SCT
10:47 56.9 °F 39.9 °F 30.13 in WSW 5.8 mph 5.8 mph 53% 0.00 in WeatherDisplay:10.37 W/m2 SCT
10:52 57.0 °F 40.0 °F 30.13 in WSW 5.8 mph 5.8 mph 53% 0.00 in WeatherDisplay:10.37 W/m2 SCT
10:57 56.6 °F 39.7 °F 30.14 in NW 4.6 mph   53% 0.00 in WeatherDisplay:10.37 W/m2 SCT
11:02 56.6 °F 39.7 °F 30.14 in NE 4.6 mph 4.6 mph 53% 0.00 in WeatherDisplay:10.37 W/m2 SCT
11:07 56.6 °F 39.2 °F 30.14 in East 4.6 mph 4.6 mph 52% 0.00 in WeatherDisplay:10.37 W/m2 SCT
11:12 56.7 °F 40.2 °F 30.14 in ESE 4.6 mph 4.6 mph 54% 0.00 in WeatherDisplay:10.37 W/m2 SCT
11:17 56.8 °F 39.4 °F 30.14 in SE 4.6 mph 4.6 mph 52% 0.00 in WeatherDisplay:10.37 W/m2 SCT
11:22 57.2 °F 40.2 °F 30.14 in SSW 3.5 mph 3.5 mph 53% 0.00 in WeatherDisplay:10.37 W/m2 SCT
11:27 57.3 °F 39.8 °F 30.14 in East 3.5 mph   52% 0.00 in WeatherDisplay:10.37 W/m2 SCT
11:42 57.8 °F 39.8 °F 30.13 in North 3.5 mph 3.5 mph 51% 0.00 in WeatherDisplay:10.37 W/m2 SCT
11:52 57.9 °F 39.4 °F 30.13 in South 3.5 mph 3.5 mph 50% 0.00 in WeatherDisplay:10.37 W/m2 SCT
11:58 57.9 °F 39.4 °F 30.13 in SE 3.5 mph 3.5 mph 50% 0.00 in WeatherDisplay:10.37 W/m2 SCT
12:08 58.1 °F 39.0 °F 30.12 in SSW 4.6 mph 4.6 mph 49% 0.00 in WeatherDisplay:10.37 W/m2 BKN
12:13 58.0 °F 38.4 °F 30.12 in SSE 4.6 mph 4.6 mph 48% 0.00 in WeatherDisplay:10.37 W/m2 BKN
12:18 58.1 °F 39.5 °F 30.12 in SE 4.6 mph 4.6 mph 50% 0.00 in WeatherDisplay:10.37 W/m2 BKN
12:23 58.1 °F 39.0 °F 30.12 in SSE 4.6 mph 4.6 mph 49% 0.00 in WeatherDisplay:10.37 W/m2 BKN
12:33 59.2 °F 40.0 °F 30.11 in WSW 4.6 mph 4.6 mph 49% 0.00 in WeatherDisplay:10.37 W/m2 BKN
12:43 59.4 °F 38.6 °F 30.11 in South 4.6 mph 4.6 mph 46% 0.00 in WeatherDisplay:10.37 W/m2 BKN
12:54 59.8 °F 39.5 °F 30.10 in NE 4.6 mph 4.6 mph 47% 0.00 in WeatherDisplay:10.37 W/m2 BKN
12:59 60.1 °F 39.8 °F 30.10 in NNW 4.6 mph   47% 0.00 in WeatherDisplay:10.37 W/m2 BKN
13:04 60.5 °F 39.0 °F 30.09 in NNW 4.6 mph   45% 0.00 in WeatherDisplay:10.37 W/m2 BKN
13:09 60.8 °F 39.3 °F 30.09 in ESE 3.5 mph 3.5 mph 45% 0.00 in WeatherDisplay:10.37 W/m2 BKN
13:14 60.8 °F 38.7 °F 30.09 in SW 3.5 mph 3.5 mph 44% 0.00 in WeatherDisplay:10.37 W/m2 BKN
13:19 60.8 °F 38.1 °F 30.08 in WSW 3.5 mph   43% 0.00 in WeatherDisplay:10.37 W/m2 BKN
13:29 60.6 °F 38.6 °F 30.08 in East 4.6 mph 4.6 mph 44% 0.00 in WeatherDisplay:10.37 W/m2 BKN
13:39 60.3 °F 38.9 °F 30.08 in South 4.6 mph   45% 0.00 in WeatherDisplay:10.37 W/m2 BKN
13:44 60.4 °F 39.5 °F 30.08 in WSW 4.6 mph 4.6 mph 46% 0.00 in WeatherDisplay:10.37 W/m2 BKN
13:49 60.4 °F 38.4 °F 30.08 in WSW 3.5 mph 3.5 mph 44% 0.00 in WeatherDisplay:10.37 W/m2 BKN
13:55 60.3 °F 38.9 °F 30.08 in North 3.5 mph 3.5 mph 45% 0.00 in WeatherDisplay:10.37 W/m2 BKN
14:00 60.0 °F 38.6 °F 30.08 in North 4.6 mph 4.6 mph 45% 0.00 in WeatherDisplay:10.37 W/m2 BKN
14:05 59.8 °F 38.4 °F 30.08 in Calm   5.0 mph 45% 0.00 in WeatherDisplay:10.37 W/m2 BKN
14:10 59.7 °F 38.3 °F 30.08 in Calm   2.0 mph 45% 0.00 in WeatherDisplay:10.37 W/m2 BKN
14:15 59.7 °F 39.4 °F 30.08 in East 2.3 mph 2.3 mph 47% 0.00 in WeatherDisplay:10.37 W/m2 BKN
14:20 59.8 °F 39.0 °F 30.08 in SE 2.3 mph 2.3 mph 46% 0.00 in WeatherDisplay:10.37 W/m2 BKN
14:35 59.9 °F 39.6 °F 30.08 in West 1.2 mph 1.2 mph 47% 0.00 in WeatherDisplay:10.37 W/m2 BKN
14:40 59.7 °F 38.3 °F 30.07 in WNW 3.5 mph 3.5 mph 45% 0.00 in WeatherDisplay:10.37 W/m2 BKN
14:45 59.5 °F 39.2 °F 30.07 in West 4.6 mph 4.6 mph 47% 0.00 in WeatherDisplay:10.37 W/m2 BKN
14:50 59.3 °F 40.1 °F 30.07 in WNW 4.6 mph 4.6 mph 49% 0.00 in WeatherDisplay:10.37 W/m2 BKN
14:55 59.2 °F 40.6 °F 30.07 in NW 4.6 mph 4.6 mph 50% 0.00 in WeatherDisplay:10.37 W/m2 BKN
15:06 59.1 °F 38.9 °F 30.07 in WSW 2.3 mph 2.3 mph 47% 0.00 in WeatherDisplay:10.37 W/m2 OVC
15:11 59.0 °F 39.3 °F 30.07 in WNW 2.3 mph 2.3 mph 48% 0.00 in WeatherDisplay:10.37 W/m2 OVC
15:26 58.6 °F 39.0 °F 30.06 in SE 3.5 mph 3.5 mph 48% 0.00 in WeatherDisplay:10.37 W/m2 OVC
15:37 58.2 °F 39.6 °F 30.06 in WNW 4.6 mph   50% 0.00 in WeatherDisplay:10.37 W/m2 OVC
15:42 58.0 °F 38.9 °F 30.06 in West 3.5 mph   49% 0.00 in WeatherDisplay:10.37 W/m2 OVC
15:47 58.0 °F 38.9 °F 30.06 in WSW 3.5 mph 3.5 mph 49% 0.00 in WeatherDisplay:10.37 W/m2 OVC
15:52 57.7 °F 38.7 °F 30.06 in SW 4.6 mph 4.6 mph 49% 0.00 in WeatherDisplay:10.37 W/m2 OVC
15:57 57.5 °F 39.0 °F 30.06 in ESE 4.6 mph   50% 0.00 in WeatherDisplay:10.37 W/m2 OVC
16:02 57.3 °F 39.3 °F 30.07 in South 3.5 mph   51% 0.00 in WeatherDisplay:10.37 W/m2 OVC
16:07 57.0 °F 38.5 °F 30.07 in SW 4.6 mph   50% 0.00 in WeatherDisplay:10.37 W/m2 OVC
16:12 56.7 °F 38.3 °F 30.07 in SSW 4.6 mph   50% 0.00 in WeatherDisplay:10.37 W/m2 OVC
16:17 56.5 °F 38.6 °F 30.07 in SW 3.5 mph   51% 0.00 in WeatherDisplay:10.37 W/m2 OVC
16:22 56.3 °F 38.4 °F 30.07 in WSW 4.6 mph   51% 0.00 in WeatherDisplay:10.37 W/m2 OVC
16:27 56.1 °F 39.2 °F 30.08 in SSW 4.6 mph   53% 0.00 in WeatherDisplay:10.37 W/m2 OVC
16:33 55.8 °F 37.9 °F 30.08 in South 2.3 mph 2.3 mph 51% 0.00 in WeatherDisplay:10.37 W/m2 OVC
16:43 55.3 °F 39.4 °F 30.08 in WSW 2.3 mph   55% 0.00 in WeatherDisplay:10.37 W/m2 OVC
16:58 54.4 °F 38.1 °F 30.08 in WNW 2.3 mph 2.3 mph 54% 0.00 in WeatherDisplay:10.37 W/m2 OVC
17:03 54.1 °F 38.3 °F 30.08 in West 2.3 mph   55% 0.00 in WeatherDisplay:10.37 W/m2 OVC
17:08 53.7 °F 37.9 °F 30.08 in West 1.2 mph   55% 0.00 in WeatherDisplay:10.37 W/m2 OVC
17:23 52.8 °F 37.5 °F 30.09 in West 3.5 mph   56% 0.00 in WeatherDisplay:10.37 W/m2 OVC
17:28 52.6 °F 37.3 °F 30.09 in SW 3.5 mph   56% 0.00 in WeatherDisplay:10.37 W/m2 OVC
17:33 52.5 °F 37.2 °F 30.09 in SW 2.3 mph 2.3 mph 56% 0.00 in WeatherDisplay:10.37 W/m2 OVC
17:38 52.1 °F 37.3 °F 30.09 in West 1.2 mph   57% 0.00 in WeatherDisplay:10.37 W/m2 OVC
17:44 51.8 °F 37.0 °F 30.10 in West 2.3 mph   57% 0.00 in WeatherDisplay:10.37 W/m2 OVC
17:49 51.6 °F 37.7 °F 30.10 in WSW 2.3 mph   59% 0.00 in WeatherDisplay:10.37 W/m2 OVC
17:59 50.9 °F 37.1 °F 30.10 in West 1.2 mph   59% 0.00 in WeatherDisplay:10.37 W/m2 OVC
18:09 50.7 °F 36.9 °F 30.10 in West 1.2 mph   59% 0.00 in WeatherDisplay:10.37 W/m2 OVC
18:14 50.5 °F 37.1 °F 30.10 in West 1.2 mph   60% 0.00 in WeatherDisplay:10.37 W/m2 OVC
18:19 50.3 °F 37.4 °F 30.11 in WNW 1.2 mph   61% 0.00 in WeatherDisplay:10.37 W/m2 OVC
18:24 50.1 °F 36.7 °F 30.11 in West 1.2 mph 1.2 mph 60% 0.00 in WeatherDisplay:10.37 W/m2 OVC
18:29 50.2 °F 36.8 °F 30.11 in SSW 1.2 mph   60% 0.00 in WeatherDisplay:10.37 W/m2 OVC
18:34 50.1 °F 36.3 °F 30.11 in West 1.2 mph 1.2 mph 59% 0.00 in WeatherDisplay:10.37 W/m2 OVC
18:39 49.9 °F 36.6 °F 30.11 in West 1.2 mph   60% 0.00 in WeatherDisplay:10.37 W/m2 OVC
18:44 49.7 °F 36.4 °F 30.11 in SSE 1.2 mph   60% 0.00 in WeatherDisplay:10.37 W/m2 OVC
18:50 49.4 °F 36.1 °F 30.11 in ESE 1.2 mph   60% 0.00 in WeatherDisplay:10.37 W/m2 OVC
18:55 49.2 °F 35.5 °F 30.11 in Calm   1.0 mph 59% 0.00 in WeatherDisplay:10.37 W/m2 OVC
19:00 49.1 °F 35.8 °F 30.11 in SE 1.2 mph   60% 0.00 in WeatherDisplay:10.37 W/m2 OVC
19:05 48.8 °F 36.4 °F 30.11 in SE 1.2 mph   62% 0.00 in WeatherDisplay:10.37 W/m2 OVC
19:15 48.3 °F 35.9 °F 30.11 in Calm     62% 0.00 in WeatherDisplay:10.37 W/m2 OVC
19:20 48.1 °F 35.7 °F 30.11 in SSE 1.2 mph   62% 0.00 in WeatherDisplay:10.37 W/m2 OVC
19:25 47.9 °F 35.9 °F 30.11 in SSW 2.3 mph   63% 0.00 in WeatherDisplay:10.37 W/m2 OVC
19:30 47.7 °F 35.7 °F 30.11 in South 2.3 mph   63% 0.00 in WeatherDisplay:10.37 W/m2 OVC
19:35 47.4 °F 35.8 °F 30.11 in Calm     64% 0.00 in WeatherDisplay:10.37 W/m2 OVC
19:40 47.2 °F 35.2 °F 30.11 in Calm     63% 0.00 in WeatherDisplay:10.37 W/m2 OVC
19:45 47.0 °F 35.8 °F 30.12 in Calm     65% 0.00 in WeatherDisplay:10.37 W/m2 OVC
19:55 46.6 °F 35.5 °F 30.12 in Calm     65% 0.00 in WeatherDisplay:10.37 W/m2 OVC
20:00 46.3 °F 35.2 °F 30.11 in Calm     65% 0.00 in WeatherDisplay:10.37 W/m2 OVC
20:06 46.1 °F 35.0 °F 30.11 in Calm     65% 0.00 in WeatherDisplay:10.37 W/m2 OVC
20:11 45.9 °F 34.8 °F 30.11 in Calm     65% 0.00 in WeatherDisplay:10.37 W/m2 BKN
20:21 45.6 °F 34.5 °F 30.12 in Calm     65% 0.00 in WeatherDisplay:10.37 W/m2 BKN
20:26 45.6 °F 33.7 °F 30.12 in SW 1.2 mph   63% 0.00 in WeatherDisplay:10.37 W/m2 BKN
20:31 45.6 °F 34.1 °F 30.12 in WSW 1.2 mph   64% 0.00 in WeatherDisplay:10.37 W/m2 BKN
20:36 45.4 °F 34.3 °F 30.11 in WSW 1.2 mph   65% 0.00 in WeatherDisplay:10.37 W/m2 BKN
20:41 45.2 °F 34.1 °F 30.11 in Calm     65% 0.00 in WeatherDisplay:10.37 W/m2 BKN
20:46 45.0 °F 33.9 °F 30.11 in Calm     65% 0.00 in WeatherDisplay:10.37 W/m2 BKN
21:07 44.4 °F 33.7 °F 30.12 in Calm     66% 0.00 in WeatherDisplay:10.37 W/m2 BKN
21:17 44.0 °F 33.7 °F 30.12 in Calm     67% 0.00 in WeatherDisplay:10.37 W/m2 BKN
21:27 43.7 °F 33.8 °F 30.12 in Calm     68% 0.00 in WeatherDisplay:10.37 W/m2 BKN
21:32 43.6 °F 33.4 °F 30.12 in Calm     67% 0.00 in WeatherDisplay:10.37 W/m2 BKN
21:37 43.4 °F 33.5 °F 30.12 in Calm     68% 0.00 in WeatherDisplay:10.37 W/m2 BKN
21:42 43.3 °F 33.4 °F 30.12 in Calm     68% 0.00 in WeatherDisplay:10.37 W/m2 BKN
21:47 43.3 °F 33.8 °F 30.12 in Calm     69% 0.00 in WeatherDisplay:10.37 W/m2 BKN
21:52 43.2 °F 33.7 °F 30.12 in Calm     69% 0.00 in WeatherDisplay:10.37 W/m2 BKN
22:02 43.1 °F 33.3 °F 30.12 in Calm     68% 0.00 in WeatherDisplay:10.37 W/m2 BKN
22:07 43.1 °F 33.6 °F 30.12 in Calm     69% 0.00 in WeatherDisplay:10.37 W/m2 BKN
22:09 43.1 °F 33.6 °F 30.12 in Calm     69% 0.00 in WeatherDisplay:10.37 W/m2 BKN
22:15 43.1 °F 33.6 °F 30.12 in Calm     69% 0.00 in WeatherDisplay:10.37 W/m2 BKN
22:20 43.1 °F 33.3 °F 30.12 in Calm     68% 0.00 in WeatherDisplay:10.37 W/m2 BKN
22:25 43.1 °F 33.6 °F 30.12 in Calm     69% 0.00 in WeatherDisplay:10.37 W/m2 BKN
22:26 43.1 °F 33.3 °F 30.12 in Calm     68% 0.00 in WeatherDisplay:10.37 W/m2 BKN
22:28 43.1 °F 33.3 °F 30.13 in Calm     68% 0.00 in WeatherDisplay:10.37 W/m2 BKN
22:33 43.1 °F 32.9 °F 30.13 in Calm     67% 0.00 in WeatherDisplay:10.37 W/m2 BKN
22:39 43.1 °F 32.9 °F 30.12 in Calm     67% 0.00 in WeatherDisplay:10.37 W/m2 BKN
22:44 43.1 °F 33.3 °F 30.13 in Calm     68% 0.00 in WeatherDisplay:10.37 W/m2 BKN
22:49 42.9 °F 33.1 °F 30.12 in Calm     68% 0.00 in WeatherDisplay:10.37 W/m2 BKN
23:05 42.5 °F 32.7 °F 30.13 in Calm   1.0 mph 68% 0.00 in WeatherDisplay:10.37 W/m2 BKN
23:15 42.6 °F 32.4 °F 30.13 in Calm     67% 0.00 in WeatherDisplay:10.37 W/m2 BKN
23:20 42.7 °F 32.5 °F 30.14 in ESE 1.2 mph   67% 0.00 in WeatherDisplay:10.37 W/m2 BKN
23:25 42.6 °F 32.0 °F 30.13 in ESE 1.2 mph   66% 0.00 in WeatherDisplay:10.37 W/m2 BKN
23:30 42.5 °F 32.3 °F 30.13 in ESE 1.2 mph   67% 0.00 in WeatherDisplay:10.37 W/m2 BKN
23:35 42.2 °F 32.4 °F 30.14 in Calm     68% 0.00 in WeatherDisplay:10.37 W/m2 BKN
23:40 41.8 °F 32.7 °F 30.14 in Calm     70% 0.00 in WeatherDisplay:10.37 W/m2 BKN
23:45 41.5 °F 33.1 °F 30.14 in Calm     72% 0.00 in WeatherDisplay:10.37 W/m2 BKN
23:50 41.2 °F 33.5 °F 30.14 in Calm     74% 0.00 in WeatherDisplay:10.37 W/m2 BKN
23:56 40.9 °F 33.2 °F 30.13 in Calm     74% 0.00 in WeatherDisplay:10.37 W/m2 BKN
Piedmont Bend
Compliments of Weather Underground - 4 mb